Time;durP1;ratioP1;P1;durP2;ratioP2;P2;SDS_P1;SDS_P2;PMS_P1;PMS_P2;Temp;Humidity;BMP_temperature;BMP_pressure;BME280_temperature;BME280_humidity;BME280_pressure;Samples;Min_cycle;Max_cycle;Signal;HPM_P1;HPM_P2
2021/05/03 00:02:19;;;;;;;9.95;8.95;;;;;;;5.10;79.69;96134.50;5010984;28;20050;-51
2021/05/03 00:04:46;;;;;;;10.52;9.05;;;;;;;4.97;79.92;96132.56;5010869;28;20085;-50
2021/05/03 00:07:12;;;;;;;12.73;9.05;;;;;;;5.00;80.22;96129.31;5023098;28;20056;-54
2021/05/03 00:09:39;;;;;;;10.73;9.63;;;;;;;4.94;80.21;96128.59;5030657;28;20136;-52
2021/05/03 00:12:07;;;;;;;10.80;8.90;;;;;;;4.90;80.20;96131.03;5030334;28;20053;-51
2021/05/03 00:14:33;;;;;;;10.93;8.85;;;;;;;5.05;79.35;96139.97;5031174;28;20053;-51
2021/05/03 00:17:00;;;;;;;11.18;9.25;;;;;;;5.06;79.71;96150.38;5023114;28;20064;-50
2021/05/03 00:19:27;;;;;;;10.15;8.40;;;;;;;4.89;79.78;96148.22;5014459;28;20132;-54
2021/05/03 00:21:53;;;;;;;10.35;8.52;;;;;;;4.72;81.21;96149.84;5014669;28;20058;-53
2021/05/03 00:24:20;;;;;;;12.00;8.55;;;;;;;4.74;82.15;96145.75;5012729;28;20045;-51
2021/05/03 00:26:47;;;;;;;9.27;7.70;;;;;;;4.60;83.00;96151.03;5012936;28;20045;-53
2021/05/03 00:29:13;;;;;;;9.90;7.57;;;;;;;4.32;85.04;96149.25;5013851;28;20440;-51
2021/05/03 00:31:39;;;;;;;10.85;9.50;;;;;;;4.39;86.25;96144.38;5014167;28;20415;-51
2021/05/03 00:34:06;;;;;;;10.77;9.52;;;;;;;4.32;85.46;96143.91;5013007;28;20515;-49
2021/05/03 00:36:33;;;;;;;13.00;10.60;;;;;;;4.36;87.19;96139.59;5023187;28;20140;-49
2021/05/03 00:39:06;;;;;;;;;;;;;;;4.52;86.52;96153.56;5034462;28;20057;-49
2021/05/03 00:41:32;;;;;;;11.90;9.80;;;;;;;4.37;87.29;96141.97;5033853;28;19921;-51
2021/05/03 00:43:59;;;;;;;11.77;9.82;;;;;;;4.36;86.47;96143.06;5034165;28;20061;-50
2021/05/03 00:46:25;;;;;;;11.75;9.57;;;;;;;4.37;86.90;96141.16;5020346;28;20050;-50
2021/05/03 00:48:52;;;;;;;13.18;10.38;;;;;;;4.55;87.19;96142.25;5013981;28;20120;-50
2021/05/03 00:51:19;;;;;;;13.07;10.32;;;;;;;4.91;85.46;96135.34;5014141;28;20428;-50
2021/05/03 00:53:45;;;;;;;12.98;9.98;;;;;;;4.54;85.38;96146.84;5013618;28;20112;-50
2021/05/03 00:56:12;;;;;;;10.35;9.15;;;;;;;4.74;85.03;96142.28;5025207;28;20515;-50
2021/05/03 00:58:38;;;;;;;12.25;10.32;;;;;;;4.90;85.17;96143.66;5018718;28;20065;-49
2021/05/03 01:01:05;;;;;;;12.60;10.23;;;;;;;4.77;85.85;96142.50;5013525;28;20404;-54
2021/05/03 01:03:32;;;;;;;12.07;10.07;;;;;;;4.68;86.60;96147.72;5013429;28;20062;-51
2021/05/03 01:05:58;;;;;;;12.30;10.48;;;;;;;4.91;86.73;96147.97;5023883;28;20052;-51
2021/05/03 01:08:25;;;;;;;11.90;10.25;;;;;;;4.74;85.82;96155.69;5032182;28;20049;-51
2021/05/03 01:10:51;;;;;;;11.98;9.75;;;;;;;4.50;86.85;96145.03;5033281;28;20061;-53
2021/05/03 01:13:18;;;;;;;14.20;10.18;;;;;;;4.53;87.21;96150.59;5033209;28;20061;-53
2021/05/03 01:15:44;;;;;;;13.15;11.02;;;;;;;4.48;87.39;96147.97;5019301;28;20082;-53
2021/05/03 01:18:11;;;;;;;13.15;10.50;;;;;;;4.58;87.42;96155.09;5011095;28;20069;-51
2021/05/03 01:20:38;;;;;;;14.02;10.80;;;;;;;4.54;88.62;96156.75;5013259;28;20050;-50
2021/05/03 01:23:06;;;;;;;13.90;9.85;;;;;;;4.59;87.55;96160.19;5012259;28;20065;-49
2021/05/03 01:25:37;;;;;;;14.05;10.82;;;;;;;4.51;87.63;96151.97;5012866;28;20478;-55
2021/05/03 01:28:05;;;;;;;14.15;11.45;;;;;;;4.53;87.53;96158.66;5011872;28;20041;-49
2021/05/03 01:30:38;;;;;;;13.20;10.35;;;;;;;4.47;87.55;96154.44;5012832;28;20082;-50
2021/05/03 01:33:06;;;;;;;13.85;11.05;;;;;;;4.64;87.15;96143.22;5017307;28;20392;-51
2021/05/03 01:35:34;;;;;;;12.85;10.48;;;;;;;4.42;86.74;96144.59;5029628;28;20049;-50
2021/05/03 01:38:01;;;;;;;14.93;12.10;;;;;;;4.43;87.95;96148.84;5011962;28;20096;-53
2021/05/03 01:40:30;;;;;;;15.00;11.57;;;;;;;4.39;87.50;96152.41;5012757;28;20053;-51
2021/05/03 01:42:57;;;;;;;15.88;11.98;;;;;;;4.43;86.91;96148.84;5013049;28;20507;-50
2021/05/03 01:45:27;;;;;;;17.48;13.27;;;;;;;4.53;86.93;96155.16;5012542;28;20050;-50
2021/05/03 01:47:54;;;;;;;14.48;11.65;;;;;;;4.43;86.65;96156.09;5011936;28;20058;-50
2021/05/03 01:50:22;;;;;;;17.27;12.25;;;;;;;4.44;87.13;96150.44;5012840;28;20164;-50
2021/05/03 01:52:50;;;;;;;16.92;12.63;;;;;;;4.48;86.00;96155.22;5012528;28;20056;-49
2021/05/03 01:55:23;;;;;;;18.58;12.82;;;;;;;4.54;86.47;96151.41;5012783;28;20053;-51
2021/05/03 01:57:50;;;;;;;17.13;13.13;;;;;;;4.39;86.67;96147.84;5011447;28;20048;-48
2021/05/03 02:00:17;;;;;;;15.43;12.95;;;;;;;4.32;86.84;96159.97;5012366;28;20499;-48
2021/05/03 02:02:48;;;;;;;17.67;13.88;;;;;;;4.54;86.29;96156.75;5011356;28;20054;-47
2021/05/03 02:05:23;;;;;;;18.30;13.68;;;;;;;4.43;87.39;96150.75;5018352;28;20046;-47
2021/05/03 02:08:03;;;;;;;18.83;14.77;;;;;;;4.42;87.53;96160.66;5029517;28;20092;-48
2021/05/03 02:10:31;;;;;;;16.52;13.82;;;;;;;4.63;87.33;96157.72;5031952;28;20115;-47
2021/05/03 02:12:59;;;;;;;17.35;13.57;;;;;;;4.89;86.54;96164.31;5031842;28;20127;-48
2021/05/03 02:15:27;;;;;;;15.90;12.73;;;;;;;4.63;85.62;96160.41;5032142;28;20080;-49
2021/05/03 02:17:54;;;;;;;18.88;14.73;;;;;;;4.53;87.92;96155.16;5018350;28;20625;-47
2021/05/03 02:20:21;;;;;;;19.42;14.93;;;;;;;4.48;88.96;96157.91;5011957;28;20462;-54
2021/05/03 02:22:47;;;;;;;19.40;14.57;;;;;;;4.79;86.70;96164.47;5011808;28;20045;-47
2021/05/03 02:25:14;;;;;;;19.42;15.38;;;;;;;4.78;86.56;96160.19;5013852;28;20125;-49
2021/05/03 02:27:48;;;;;;;18.98;14.88;;;;;;;4.57;87.67;96161.53;5010855;28;20045;-50
2021/05/03 02:30:16;;;;;;;20.13;15.23;;;;;;;4.56;88.07;96162.63;5011811;28;20495;-49
2021/05/03 02:32:45;;;;;;;21.13;15.13;;;;;;;4.81;87.16;96167.66;5011948;28;20054;-51
2021/05/03 02:35:16;;;;;;;17.00;13.75;;;;;;;4.78;85.93;96162.88;5012158;28;20168;-48
2021/05/03 02:37:49;;;;;;;17.33;13.02;;;;;;;4.33;86.90;96159.69;5011396;28;20132;-47
2021/05/03 02:40:16;;;;;;;18.48;13.82;;;;;;;4.27;87.07;96150.13;5012111;28;20054;-52
2021/05/03 02:42:48;;;;;;;16.60;13.15;;;;;;;4.29;87.15;96160.53;5012044;28;20463;-51
2021/05/03 02:45:15;;;;;;;17.30;13.73;;;;;;;4.33;87.45;96165.06;5011830;28;20412;-49
2021/05/03 02:47:42;;;;;;;16.98;13.48;;;;;;;4.19;87.63;96166.81;5011780;28;20057;-50
2021/05/03 02:50:10;;;;;;;15.85;12.77;;;;;;;4.25;86.61;96160.31;5010930;28;20050;-46
2021/05/03 02:52:37;;;;;;;19.45;14.30;;;;;;;4.39;87.64;96158.56;5012025;28;20054;-48
2021/05/03 02:55:04;;;;;;;16.67;11.57;;;;;;;4.33;86.50;96157.03;5011919;28;20100;-48
2021/05/03 02:57:30;;;;;;;18.65;13.63;;;;;;;4.36;87.05;96164.47;5010156;28;20045;-47
2021/05/03 02:59:57;;;;;;;18.35;13.65;;;;;;;4.41;86.86;96160.94;5011876;28;20104;-45
2021/05/03 03:02:23;;;;;;;19.02;15.27;;;;;;;4.51;86.78;96160.81;5011785;28;20081;-46
2021/05/03 03:04:50;;;;;;;17.63;14.40;;;;;;;4.44;88.19;96166.50;5013327;28;20139;-52
2021/05/03 03:07:16;;;;;;;20.90;15.95;;;;;;;4.49;87.54;96165.66;5024277;28;20587;-51
2021/05/03 03:09:43;;;;;;;19.13;14.85;;;;;;;4.39;87.65;96171.16;5011630;28;20556;-47
2021/05/03 03:12:11;;;;;;;20.65;15.30;;;;;;;4.43;88.02;96161.47;5011765;28;20049;-47
2021/05/03 03:14:38;;;;;;;16.80;13.80;;;;;;;4.27;87.35;96168.88;5011719;28;20061;-47
2021/05/03 03:17:04;;;;;;;17.05;14.00;;;;;;;4.32;87.92;96168.81;5011192;28;20054;-47
2021/05/03 03:19:31;;;;;;;18.50;14.80;;;;;;;4.37;89.07;96176.78;5011706;28;20058;-50
2021/05/03 03:21:57;;;;;;;20.35;16.08;;;;;;;4.47;89.11;96167.81;5011603;28;20053;-49
2021/05/03 03:24:24;;;;;;;20.88;15.13;;;;;;;4.61;89.12;96170.59;5011433;28;20054;-48
2021/05/03 03:26:50;;;;;;;20.25;15.50;;;;;;;4.55;88.28;96175.25;5011134;28;20176;-52
2021/05/03 03:29:17;;;;;;;19.38;14.50;;;;;;;4.44;89.05;96173.75;5011929;28;20475;-52
2021/05/03 03:31:43;;;;;;;18.10;14.27;;;;;;;4.54;86.49;96176.31;5011576;28;20046;-51
2021/05/03 03:34:10;;;;;;;15.93;12.95;;;;;;;4.57;86.72;96175.72;5011412;28;20149;-49
2021/05/03 03:36:36;;;;;;;17.90;14.57;;;;;;;4.47;87.58;96169.72;5011296;28;20053;-50
2021/05/03 03:39:05;;;;;;;15.88;12.68;;;;;;;4.33;86.77;96175.78;5011402;28;20101;-47
2021/05/03 03:41:33;;;;;;;18.98;14.00;;;;;;;4.34;86.21;96182.72;5011413;28;20057;-52
2021/05/03 03:44:00;;;;;;;16.13;12.95;;;;;;;4.18;87.07;96189.31;5011340;28;20467;-47
2021/05/03 03:46:27;;;;;;;17.17;13.05;;;;;;;4.18;86.87;96186.66;4993791;28;20050;-49
2021/05/03 03:48:54;;;;;;;17.67;12.55;;;;;;;4.16;86.83;96196.84;5011450;28;20115;-48
2021/05/03 03:51:21;;;;;;;18.40;14.48;;;;;;;4.27;87.27;96194.88;5013927;28;20050;-54
2021/05/03 03:53:47;;;;;;;17.77;13.48;;;;;;;4.25;86.90;96202.38;5014919;28;20053;-48
2021/05/03 03:56:16;;;;;;;17.15;13.55;;;;;;;4.19;87.19;96212.34;5014961;28;20053;-52
2021/05/03 03:58:45;;;;;;;15.48;12.57;;;;;;;4.28;87.27;96213.31;5014777;28;20046;-47
2021/05/03 04:01:13;;;;;;;17.50;13.23;;;;;;;4.21;86.05;96218.22;5014811;28;20061;-49
2021/05/03 04:03:48;;;;;;;17.35;12.82;;;;;;;4.07;86.51;96211.94;5019785;28;20053;-47
2021/05/03 04:09:08;;;;;;;17.95;13.50;;;;;;;3.96;87.71;96217.41;5034734;28;20514;-51
2021/05/03 04:25:26;;;;;;;20.10;13.25;;;;;;;3.87;87.20;96229.81;5014685;28;20054;-49
2021/05/03 04:27:53;;;;;;;16.65;13.18;;;;;;;3.81;86.66;96236.28;5013985;28;20048;-48
2021/05/03 04:30:19;;;;;;;18.58;12.57;;;;;;;3.75;86.74;96242.75;5014415;28;20057;-46
2021/05/03 04:32:46;;;;;;;18.00;13.60;;;;;;;3.75;87.18;96237.41;5021038;28;20049;-50
2021/05/03 04:35:13;;;;;;;16.60;14.18;;;;;;;3.80;86.27;96248.03;5034217;28;20041;-48
2021/05/03 04:37:41;;;;;;;15.98;12.93;;;;;;;3.80;86.93;96244.56;5022187;28;20069;-48
2021/05/03 04:40:08;;;;;;;16.73;13.27;;;;;;;3.94;86.35;96242.88;5014604;28;20123;-50
2021/05/03 04:42:34;;;;;;;18.38;13.20;;;;;;;3.92;87.15;96245.81;5014750;28;20081;-53
2021/05/03 04:45:01;;;;;;;17.05;12.88;;;;;;;3.97;87.41;96251.13;5012752;28;20088;-46
2021/05/03 04:47:28;;;;;;;19.23;13.52;;;;;;;3.92;86.33;96248.47;5013853;28;20086;-51
2021/05/03 04:49:54;;;;;;;17.08;13.25;;;;;;;3.91;86.40;96249.56;5012664;28;20129;-48
2021/05/03 04:52:21;;;;;;;20.15;13.32;;;;;;;3.87;87.47;96256.56;5013734;28;20057;-49
2021/05/03 04:54:47;;;;;;;16.90;12.25;;;;;;;3.99;86.37;96256.19;5029313;28;20132;-54
2021/05/03 04:57:13;;;;;;;16.38;12.82;;;;;;;4.04;86.44;96247.31;5015966;28;20053;-52
2021/05/03 04:59:41;;;;;;;15.48;11.65;;;;;;;4.04;86.22;96245.44;5033475;28;20061;-51
2021/05/03 05:02:07;;;;;;;16.30;13.05;;;;;;;4.20;86.90;96256.81;5033148;28;20403;-52
2021/05/03 05:04:34;;;;;;;14.93;11.32;;;;;;;4.15;85.67;96257.63;5033472;28;20053;-51
2021/05/03 05:07:01;;;;;;;14.25;12.00;;;;;;;4.21;85.26;96261.06;5033487;28;20042;-55
2021/05/03 05:09:27;;;;;;;14.95;12.10;;;;;;;4.23;85.48;96264.28;5028239;28;20052;-51
2021/05/03 05:11:54;;;;;;;16.10;11.50;;;;;;;4.18;84.95;96258.97;5033403;28;20053;-49
2021/05/03 05:14:21;;;;;;;15.52;11.82;;;;;;;4.26;84.96;96265.56;5033150;28;20060;-52
2021/05/03 05:16:47;;;;;;;16.20;12.70;;;;;;;4.28;84.99;96266.88;5030712;28;20053;-50
2021/05/03 05:19:15;;;;;;;15.20;12.52;;;;;;;4.25;84.18;96263.97;5047139;28;20127;-51
2021/05/03 05:21:41;;;;;;;14.65;11.85;;;;;;;4.30;84.28;96263.94;5053059;28;20052;-50
2021/05/03 05:24:09;;;;;;;15.05;12.20;;;;;;;4.40;84.77;96267.31;5053184;28;20422;-52
2021/05/03 05:26:35;;;;;;;15.20;11.68;;;;;;;4.23;84.42;96266.94;5017043;28;20180;-51
2021/05/03 05:29:03;;;;;;;13.55;11.02;;;;;;;4.24;84.63;96273.91;5019631;28;20096;-51
2021/05/03 05:31:30;;;;;;;15.80;12.15;;;;;;;4.30;84.63;96272.78;5020050;28;20057;-50
2021/05/03 05:33:57;;;;;;;13.68;11.13;;;;;;;4.22;84.56;96265.34;5027080;28;20076;-52
2021/05/03 05:36:23;;;;;;;14.15;11.43;;;;;;;4.33;83.90;96269.53;5019933;28;20116;-52
2021/05/03 05:38:49;;;;;;;14.23;11.38;;;;;;;4.33;83.83;96269.53;5039562;28;20114;-50
2021/05/03 05:41:18;;;;;;;13.50;11.40;;;;;;;4.40;83.38;96275.34;5052897;28;20068;-51
2021/05/03 05:43:46;;;;;;;14.43;11.00;;;;;;;4.43;83.72;96274.78;5052837;28;20075;-48
2021/05/03 05:46:13;;;;;;;14.63;10.98;;;;;;;4.48;83.11;96273.91;5036060;28;20372;-48
2021/05/03 05:48:40;;;;;;;14.45;11.63;;;;;;;4.65;83.18;96281.53;5013095;28;20107;-50
2021/05/03 05:51:06;;;;;;;13.93;10.27;;;;;;;4.60;82.28;96281.56;5012866;28;20054;-50
2021/05/03 05:53:33;;;;;;;15.10;11.57;;;;;;;4.64;82.22;96283.38;5032471;23;20517;-46
2021/05/03 05:56:00;;;;;;;14.60;10.93;;;;;;;4.73;82.08;96280.88;5011665;28;20173;-46
2021/05/03 05:58:32;;;;;;;13.32;10.50;;;;;;;4.60;81.77;96285.03;5023474;28;20049;-45
2021/05/03 06:01:03;;;;;;;14.18;10.93;;;;;;;4.67;81.80;96287.38;5030695;28;20482;-47
2021/05/03 06:03:31;;;;;;;13.73;10.70;;;;;;;4.67;81.58;96296.22;5032199;28;20050;-46
2021/05/03 06:05:58;;;;;;;12.95;10.35;;;;;;;4.74;81.30;96293.19;5024899;28;20104;-45
2021/05/03 06:08:25;;;;;;;14.25;11.30;;;;;;;4.86;81.33;96293.59;5010800;28;20507;-46
2021/05/03 06:10:53;;;;;;;15.20;11.82;;;;;;;5.01;82.50;96295.28;5012788;28;20507;-45
2021/05/03 06:13:20;;;;;;;13.65;11.25;;;;;;;5.08;81.01;96292.25;5011585;28;20096;-46
2021/05/03 06:15:47;;;;;;;14.40;10.98;;;;;;;5.16;80.31;96295.06;5012212;28;20046;-46
2021/05/03 06:18:13;;;;;;;14.38;10.95;;;;;;;5.26;79.73;96301.41;5012206;28;20042;-45
2021/05/03 06:20:40;;;;;;;15.50;10.75;;;;;;;5.25;79.09;96294.44;5010891;28;20510;-46
2021/05/03 06:23:08;;;;;;;15.90;12.52;;;;;;;5.49;79.00;96307.78;5026945;28;20050;-46
2021/05/03 06:25:34;;;;;;;15.23;10.57;;;;;;;5.43;77.24;96295.53;5012255;28;20057;-44
2021/05/03 06:28:01;;;;;;;14.30;10.38;;;;;;;5.39;77.91;96300.69;5020086;28;20049;-44
2021/05/03 06:30:28;;;;;;;13.35;11.27;;;;;;;5.52;79.09;96305.31;5030593;28;20422;-45
2021/05/03 06:32:55;;;;;;;13.52;9.43;;;;;;;5.39;77.46;96309.56;5032109;28;20042;-44
2021/05/03 06:35:23;;;;;;;15.80;12.10;;;;;;;5.52;78.83;96310.69;5032001;28;20546;-44
2021/05/03 06:37:51;;;;;;;14.32;11.57;;;;;;;5.55;78.99;96309.31;5021979;28;20049;-46
2021/05/03 06:40:18;;;;;;;13.32;11.00;;;;;;;5.72;76.91;96309.63;5020673;28;20133;-45
2021/05/03 06:42:48;;;;;;;15.05;10.95;;;;;;;5.88;77.56;96302.09;5032335;28;20045;-45
2021/05/03 06:45:17;;;;;;;13.35;10.68;;;;;;;5.98;77.14;96306.53;5050500;28;20053;-45
2021/05/03 06:47:45;;;;;;;16.92;10.68;;;;;;;5.75;76.51;96309.03;5026900;28;20049;-46
2021/05/03 06:50:13;;;;;;;13.60;10.27;;;;;;;5.92;75.15;96308.50;5017633;28;20070;-46
2021/05/03 06:52:42;;;;;;;14.68;10.23;;;;;;;5.87;73.10;96316.63;5031766;28;20072;-46
2021/05/03 06:55:09;;;;;;;14.35;11.43;;;;;;;6.09;76.01;96308.00;5029657;28;20052;-45
2021/05/03 06:57:35;;;;;;;13.10;10.52;;;;;;;6.03;75.15;96315.31;5029623;28;20091;-49
2021/05/03 07:00:04;;;;;;;12.70;10.68;;;;;;;6.29;75.84;96315.69;5025867;28;20521;-46
2021/05/03 07:02:31;;;;;;;12.00;9.40;;;;;;;6.20;74.02;96320.16;5048936;28;20053;-48
2021/05/03 07:04:58;;;;;;;12.07;9.80;;;;;;;6.00;73.88;96321.28;5031310;28;20041;-45
2021/05/03 07:07:24;;;;;;;13.05;10.23;;;;;;;6.03;73.47;96325.28;5031015;28;20052;-45
2021/05/03 07:09:51;;;;;;;12.88;10.18;;;;;;;6.29;73.57;96329.13;5031589;28;20073;-46
2021/05/03 07:12:21;;;;;;;13.18;10.27;;;;;;;6.36;73.36;96327.97;5030283;28;20111;-45
2021/05/03 07:14:48;;;;;;;14.18;10.15;;;;;;;6.20;73.37;96322.84;5031995;28;20057;-44
2021/05/03 07:17:15;;;;;;;12.68;10.10;;;;;;;6.46;72.42;96325.88;5030076;28;20053;-45
2021/05/03 07:19:42;;;;;;;13.77;9.48;;;;;;;6.33;71.73;96324.75;5028626;28;20057;-44
2021/05/03 07:22:10;;;;;;;12.65;8.82;;;;;;;6.17;71.58;96320.72;5033382;28;20466;-46
2021/05/03 07:24:40;;;;;;;11.10;8.93;;;;;;;6.24;71.59;96331.94;5032635;28;20048;-48
2021/05/03 07:27:11;;;;;;;13.05;9.68;;;;;;;6.28;72.09;96332.13;5026259;28;20050;-44
2021/05/03 07:29:38;;;;;;;11.98;10.00;;;;;;;6.58;72.96;96328.09;5034356;28;20487;-46
2021/05/03 07:32:06;;;;;;;13.10;10.15;;;;;;;6.86;70.55;96325.44;5034108;28;20061;-46
2021/05/03 07:34:34;;;;;;;11.35;8.90;;;;;;;6.77;70.43;96322.66;5033118;28;20149;-44
2021/05/03 07:37:05;;;;;;;15.70;9.68;;;;;;;6.88;69.99;96321.34;5032400;28;20049;-46
2021/05/03 07:39:34;;;;;;;11.60;9.38;;;;;;;7.05;68.85;96311.88;5034753;28;20471;-46
2021/05/03 07:42:00;;;;;;;11.70;9.20;;;;;;;6.95;68.94;96316.38;5034135;28;20049;-47
2021/05/03 07:44:48;;;;;;;10.20;8.38;;;;;;;7.04;67.33;96316.47;5021159;28;20042;-47
2021/05/03 07:47:14;;;;;;;11.10;8.95;;;;;;;7.24;67.61;96313.34;5014863;28;20116;-47
2021/05/03 07:49:41;;;;;;;11.77;8.88;;;;;;;7.05;65.84;96320.75;5015359;28;20050;-45
2021/05/03 07:52:08;;;;;;;11.57;8.27;;;;;;;7.22;66.17;96318.25;5014318;28;20049;-44
2021/05/03 07:54:35;;;;;;;12.60;8.93;;;;;;;7.38;64.98;96318.75;5029685;28;20060;-49
2021/05/03 07:57:02;;;;;;;13.35;9.02;;;;;;;7.29;65.29;96314.38;5032594;28;20057;-45
2021/05/03 07:59:29;;;;;;;12.55;8.55;;;;;;;6.97;66.29;96316.88;5042577;28;20502;-44
2021/05/03 08:01:56;;;;;;;10.25;8.40;;;;;;;6.97;65.60;96316.09;5054987;28;20059;-45
2021/05/03 08:04:24;;;;;;;10.80;8.15;;;;;;;7.16;64.43;96321.34;5050915;28;20053;-45
2021/05/03 08:06:57;;;;;;;13.23;9.05;;;;;;;7.16;64.04;96319.47;5012346;28;20214;-45
2021/05/03 08:09:25;;;;;;;11.18;7.80;;;;;;;7.24;62.83;96316.03;5016452;28;20111;-47
2021/05/03 08:11:53;;;;;;;11.02;7.78;;;;;;;7.23;62.73;96314.47;5031176;28;20050;-50
2021/05/03 08:14:22;;;;;;;11.13;7.00;;;;;;;7.32;62.71;96317.25;5030990;28;20056;-46
2021/05/03 08:16:52;;;;;;;10.70;7.45;;;;;;;7.62;61.01;96317.69;5031713;28;20053;-51
2021/05/03 08:19:18;;;;;;;11.15;7.28;;;;;;;7.99;60.62;96324.63;5033970;28;20050;-50
2021/05/03 08:21:56;;;;;;;9.13;7.00;;;;;;;8.04;58.90;96318.34;5034981;28;20061;-50
2021/05/03 08:24:23;;;;;;;12.05;7.68;;;;;;;7.68;57.86;96319.16;5032129;28;20053;-50
2021/05/03 08:26:50;;;;;;;8.60;6.70;;;;;;;7.55;58.77;96330.78;5029566;28;20486;-49
2021/05/03 08:29:16;;;;;;;10.13;7.55;;;;;;;7.70;59.43;96325.84;5033486;28;20041;-47
2021/05/03 08:31:43;;;;;;;13.43;7.43;;;;;;;7.73;60.20;96317.16;5024760;28;20053;-48
2021/05/03 08:34:09;;;;;;;10.80;7.65;;;;;;;7.94;59.70;96319.38;5028306;28;20480;-49
2021/05/03 08:36:36;;;;;;;10.00;7.80;;;;;;;7.93;58.80;96325.88;5018750;28;20056;-50
2021/05/03 08:39:05;;;;;;;11.30;8.00;;;;;;;7.88;60.25;96328.69;5009173;28;20056;-51
2021/05/03 08:41:34;;;;;;;9.90;7.10;;;;;;;8.04;59.10;96327.22;5044206;28;20070;-49
2021/05/03 08:44:01;;;;;;;8.65;7.57;;;;;;;8.07;58.05;96321.22;5023811;28;20053;-47
2021/05/03 08:46:28;;;;;;;11.45;6.50;;;;;;;8.02;57.92;96315.16;5024532;28;20057;-47
2021/05/03 08:49:07;;;;;;;9.13;6.43;;;;;;;8.37;57.55;96314.28;5015094;28;20152;-49
2021/05/03 08:51:44;;;;;;;9.43;6.47;;;;;;;8.10;55.87;96327.91;5019732;28;20084;-49
2021/05/03 08:54:23;;;;;;;8.82;6.60;;;;;;;7.86;56.83;96320.88;5029964;28;20045;-47
2021/05/03 08:56:50;;;;;;;9.85;6.75;;;;;;;8.04;57.61;96321.81;5033728;28;20065;-46
2021/05/03 08:59:16;;;;;;;9.90;6.30;;;;;;;7.74;58.98;96328.72;5040864;28;20065;-48
2021/05/03 09:01:48;;;;;;;9.77;6.32;;;;;;;7.55;57.04;96342.34;5026840;28;20057;-49
2021/05/03 09:04:16;;;;;;;7.72;5.93;;;;;;;7.32;56.33;96332.63;5031938;28;20049;-49
2021/05/03 09:07:04;;;;;;;9.68;6.03;;;;;;;7.20;55.86;96336.59;5031044;28;20076;-50
2021/05/03 09:09:37;;;;;;;7.22;5.28;;;;;;;7.29;55.79;96325.13;5038316;28;20059;-50
2021/05/03 09:12:10;;;;;;;8.98;6.25;;;;;;;7.47;56.19;96326.88;5027594;28;20046;-48
2021/05/03 09:15:00;;;;;;;12.48;6.20;;;;;;;7.50;56.88;96324.38;5027880;28;20132;-49
2021/05/03 09:17:43;;;;;;;7.47;5.10;;;;;;;7.63;56.53;96320.06;5034570;28;20059;-49
2021/05/03 09:20:30;;;;;;;8.45;5.60;;;;;;;7.42;57.04;96318.94;5033078;28;20053;-49
2021/05/03 09:23:03;;;;;;;8.07;5.20;;;;;;;7.48;55.99;96320.41;5032506;28;20041;-53
2021/05/03 09:28:26;;;;;;;7.13;4.55;;;;;;;6.87;55.40;96311.69;5033107;28;20140;-45
2021/05/03 09:30:56;;;;;;;5.97;5.05;;;;;;;6.91;56.55;96319.97;5034629;28;20053;-45
2021/05/03 09:33:27;;;;;;;10.43;5.13;;;;;;;6.87;57.04;96305.53;5038288;28;20049;-43
2021/05/03 09:36:03;;;;;;;7.72;5.05;;;;;;;6.96;56.67;96309.13;5032795;28;20057;-42
2021/05/03 09:38:32;;;;;;;4.82;3.92;;;;;;;6.80;54.61;96297.84;5034228;28;20573;-47
2021/05/03 09:41:23;;;;;;;5.90;4.63;;;;;;;7.06;56.39;96300.03;5031732;28;20457;-43
2021/05/03 09:43:49;;;;;;;6.00;4.10;;;;;;;7.62;53.75;96305.00;5025438;28;20103;-43
2021/05/03 09:46:35;;;;;;;7.15;4.57;;;;;;;8.10;54.66;96300.94;5027632;28;20782;-45
2021/05/03 09:49:21;;;;;;;6.95;5.03;;;;;;;8.41;52.86;96301.00;5044043;28;20088;-45
2021/05/03 09:51:53;;;;;;;7.45;5.28;;;;;;;8.46;54.88;96294.69;5025120;28;20077;-47
2021/05/03 09:54:29;;;;;;;7.75;5.82;;;;;;;8.44;52.54;96292.28;5032058;28;20075;-44
2021/05/03 09:56:59;;;;;;;7.40;5.38;;;;;;;8.40;55.04;96296.72;5026400;28;20132;-44
2021/05/03 09:59:38;;;;;;;6.70;5.03;;;;;;;8.30;55.97;96305.81;5038277;28;20041;-46
2021/05/03 10:02:08;;;;;;;6.53;4.47;;;;;;;7.69;54.58;96308.06;5031813;28;20057;-45
2021/05/03 10:04:37;;;;;;;5.45;4.20;;;;;;;7.48;55.19;96304.25;5032941;28;20132;-45
2021/05/03 10:07:05;;;;;;;7.38;3.97;;;;;;;7.48;53.92;96306.97;5033529;28;20061;-44
2021/05/03 10:09:32;;;;;;;5.50;3.80;;;;;;;7.77;54.28;96300.38;5045178;28;20041;-47
2021/05/03 10:12:00;;;;;;;5.57;3.88;;;;;;;8.24;55.09;96292.78;5045011;28;20122;-46
2021/05/03 10:14:28;;;;;;;6.70;4.47;;;;;;;8.45;54.76;96288.50;5036202;28;20387;-46
2021/05/03 10:16:56;;;;;;;7.78;4.13;;;;;;;8.86;52.87;96282.78;5032874;28;20132;-44
2021/05/03 10:19:23;;;;;;;5.60;4.55;;;;;;;8.66;52.34;96289.53;5055117;28;20042;-44
2021/05/03 10:21:50;;;;;;;7.15;5.35;;;;;;;9.42;49.82;96299.28;5032439;28;20457;-43
2021/05/03 10:24:19;;;;;;;6.90;5.30;;;;;;;8.35;53.79;96294.09;5032073;28;20195;-46
2021/05/03 10:26:50;;;;;;;6.63;5.15;;;;;;;8.07;56.61;96293.47;5042685;28;20580;-47
2021/05/03 10:29:42;;;;;;;6.88;5.60;;;;;;;7.86;55.76;96293.16;5031077;28;20057;-47
2021/05/03 10:32:23;;;;;;;6.70;5.45;;;;;;;8.28;55.46;96304.53;5041082;28;20053;-47
2021/05/03 10:34:53;;;;;;;19.15;6.22;;;;;;;8.28;55.17;96299.16;5036550;28;20781;-51
2021/05/03 10:37:29;;;;;;;8.35;5.43;;;;;;;8.35;54.67;96303.03;5015413;28;20056;-52
2021/05/03 10:40:20;;;;;;;6.90;5.10;;;;;;;8.19;55.34;96296.41;5036999;28;20379;-53
2021/05/03 10:43:01;;;;;;;6.72;5.07;;;;;;;8.61;55.80;96292.41;5023551;28;20049;-50
2021/05/03 10:48:39;;;;;;;7.18;5.20;;;;;;;8.29;52.73;96284.59;5044314;28;20073;-47
2021/05/03 10:51:09;;;;;;;;;;;;;;;8.68;53.31;96272.25;5033792;28;20438;-48
2021/05/03 10:56:04;;;;;;;7.28;5.50;;;;;;;8.44;51.42;96276.13;5042824;28;20053;-49
2021/05/03 10:58:30;;;;;;;8.52;5.35;;;;;;;8.76;52.66;96264.19;5043777;28;20385;-50
2021/05/03 11:01:05;;;;;;;7.20;4.90;;;;;;;9.16;51.80;96252.56;5037942;28;20053;-51
2021/05/03 11:03:56;;;;;;;7.25;5.38;;;;;;;9.45;49.39;96251.94;5033621;28;20056;-51
2021/05/03 11:06:41;;;;;;;7.10;5.25;;;;;;;9.95;49.61;96246.88;5022989;28;20083;-51
2021/05/03 11:09:39;;;;;;;7.10;5.18;;;;;;;10.20;47.43;96249.81;5047534;28;20622;-49
2021/05/03 11:12:06;;;;;;;8.13;5.80;;;;;;;9.01;47.30;96257.28;5039609;28;20052;-49
2021/05/03 11:15:21;;;;;;;6.28;4.82;;;;;;;8.95;48.65;96242.34;5017295;28;20124;-44
2021/05/03 11:18:27;;;;;;;7.13;5.38;;;;;;;9.19;47.59;96243.81;5036156;28;20053;-47
2021/05/03 11:21:08;;;;;;;6.43;5.57;;;;;;;9.55;47.71;96238.94;5036174;28;20072;-44
2021/05/03 11:23:37;;;;;;;6.22;5.05;;;;;;;9.78;48.18;96246.88;5024515;28;20129;-46
2021/05/03 11:26:04;;;;;;;7.50;5.22;;;;;;;9.24;51.72;96224.78;5034656;28;20069;-49
2021/05/03 11:28:37;;;;;;;7.20;5.80;;;;;;;9.48;50.50;96233.22;5032323;28;20045;-45
2021/05/03 11:31:19;;;;;;;6.68;5.40;;;;;;;8.91;50.52;96235.22;5034110;28;20092;-45
2021/05/03 11:34:01;;;;;;;7.72;5.65;;;;;;;9.55;51.31;96232.72;5033649;28;20087;-47
2021/05/03 11:36:32;;;;;;;7.57;5.40;;;;;;;9.91;49.34;96218.91;5028530;28;20069;-46
2021/05/03 11:41:38;;;;;;;7.78;5.93;;;;;;;10.62;45.10;96226.50;5034114;28;20053;-48
2021/05/03 11:46:51;;;;;;;7.75;5.63;;;;;;;10.78;46.47;96213.22;5027399;28;20053;-47
2021/05/03 11:49:22;;;;;;;6.15;5.25;;;;;;;9.54;47.73;96214.94;5014513;28;20055;-50
2021/05/03 11:51:55;;;;;;;7.55;5.18;;;;;;;9.49;48.51;96213.22;5028211;28;20052;-48
2021/05/03 11:54:42;;;;;;;8.07;4.88;;;;;;;9.56;46.80;96212.72;5027090;28;20399;-45
2021/05/03 11:57:16;;;;;;;7.07;5.13;;;;;;;9.49;46.63;96207.00;5042887;28;22404;-48
2021/05/03 11:59:44;;;;;;;6.30;4.88;;;;;;;9.63;47.38;96217.66;5044406;28;20383;-47
2021/05/03 12:02:15;;;;;;;8.68;5.35;;;;;;;9.75;47.49;96204.25;5030953;28;20057;-46
2021/05/03 12:04:44;;;;;;;6.13;4.97;;;;;;;10.16;48.66;96205.63;5029057;28;20057;-46
2021/05/03 12:07:25;;;;;;;8.32;4.80;;;;;;;10.53;44.48;96202.19;5028262;28;20050;-44
2021/05/03 12:10:17;;;;;;;9.45;6.55;;;;;;;11.21;43.44;96199.44;5025318;28;20092;-47
2021/05/03 12:12:53;;;;;;;7.38;5.60;;;;;;;12.59;39.71;96196.53;5028014;28;20052;-49
2021/05/03 12:15:21;;;;;;;5.90;4.72;;;;;;;12.35;39.50;96193.78;5035186;28;20522;-49